地図

経路データ

SID SEASON NUMBER BASIN SUBBASIN NAME ISO_TIME NATURE LAT LON WMO_WIND WMO_PRES WMO_AGENCY TRACK_TYPE DIST2LAND LANDFALL IFLAG USA_AGENCY USA_ATCF_ID USA_LAT USA_LON USA_RECORD USA_STATUS USA_WIND USA_PRES USA_SSHS USA_R34_NE USA_R34_SE USA_R34_SW USA_R34_NW USA_R50_NE USA_R50_SE USA_R50_SW USA_R50_NW USA_R64_NE USA_R64_SE USA_R64_SW USA_R64_NW USA_POCI USA_ROCI USA_RMW USA_EYE TOKYO_LAT TOKYO_LON TOKYO_GRADE TOKYO_WIND TOKYO_PRES TOKYO_R50_DIR TOKYO_R50_LONG TOKYO_R50_SHORT TOKYO_R30_DIR TOKYO_R30_LONG TOKYO_R30_SHORT TOKYO_LAND CMA_LAT CMA_LON CMA_CAT CMA_WIND CMA_PRES HKO_LAT HKO_LON HKO_CAT HKO_WIND HKO_PRES NEWDELHI_LAT NEWDELHI_LON NEWDELHI_GRADE NEWDELHI_WIND NEWDELHI_PRES NEWDELHI_CI NEWDELHI_DP NEWDELHI_POCI REUNION_LAT REUNION_LON REUNION_TYPE REUNION_WIND REUNION_PRES REUNION_TNUM REUNION_CI REUNION_RMW REUNION_R34_NE REUNION_R34_SE REUNION_R34_SW REUNION_R34_NW REUNION_R50_NE REUNION_R50_SE REUNION_R50_SW REUNION_R50_NW REUNION_R64_NE REUNION_R64_SE REUNION_R64_SW REUNION_R64_NW BOM_LAT BOM_LON BOM_TYPE BOM_WIND BOM_PRES BOM_TNUM BOM_CI BOM_RMW BOM_R34_NE BOM_R34_SE BOM_R34_SW BOM_R34_NW BOM_R50_NE BOM_R50_SE BOM_R50_SW BOM_R50_NW BOM_R64_NE BOM_R64_SE BOM_R64_SW BOM_R64_NW BOM_ROCI BOM_POCI BOM_EYE BOM_POS_METHOD BOM_PRES_METHOD NADI_LAT NADI_LON NADI_CAT NADI_WIND NADI_PRES WELLINGTON_LAT WELLINGTON_LON WELLINGTON_WIND WELLINGTON_PRES DS824_LAT DS824_LON DS824_STAGE DS824_WIND DS824_PRES TD9636_LAT TD9636_LON TD9636_STAGE TD9636_WIND TD9636_PRES TD9635_LAT TD9635_LON TD9635_WIND TD9635_PRES TD9635_ROCI NEUMANN_LAT NEUMANN_LON NEUMANN_CLASS NEUMANN_WIND NEUMANN_PRES MLC_LAT MLC_LON MLC_CLASS MLC_WIND MLC_PRES USA_GUST BOM_GUST BOM_GUST_PER REUNION_GUST REUNION_GUST_PER USA_SEAHGT USA_SEARAD_NE USA_SEARAD_SE USA_SEARAD_SW USA_SEARAD_NW STORM_SPEED STORM_DIR
1904138N14125 1904 11 WP MM NOT_NAMED 1904-05-17 04:00:00 NR 14.0000 125.000 main 65 65 __________O___ -1 14.0000 125.000 7 8 13
1904138N14125 1904 11 WP MM NOT_NAMED 1904-05-17 06:00:00 NR 14.2500 125.062 main 87 87 __________P___ -1 14.2500 125.062 7 8 14
1904138N14125 1904 11 WP MM NOT_NAMED 1904-05-17 09:00:00 NR 14.6250 125.157 main 116 116 __________P___ -1 14.6250 125.157 7 8 14
1904138N14125 1904 11 WP MM NOT_NAMED 1904-05-17 12:00:00 NR 15.0000 125.257 main 155 155 __________P___ -1 15.0000 125.257 7 8 15
1904138N14125 1904 11 WP MM NOT_NAMED 1904-05-17 15:00:00 NR 15.3750 125.363 main 196 196 __________P___ -1 15.3750 125.363 7 8 16
1904138N14125 1904 11 WP MM NOT_NAMED 1904-05-17 16:00:00 NR 15.5000 125.400 main 205 205 __________O___ -1 15.5000 125.400 7 8 17
1904138N14125 1904 11 WP MM NOT_NAMED 1904-05-17 18:00:00 NR 15.7495 125.478 main 229 239 __________P___ -1 15.7495 125.478 7 8 17
1904138N14125 1904 11 WP MM NOT_NAMED 1904-05-17 21:00:00 NR 16.1177 125.600 main 273 273 __________P___ -1 16.1177 125.600 7 8 18
1904138N14125 1904 11 WP MM NOT_NAMED 1904-05-18 00:00:00 NR 16.4703 125.728 main 317 317 __________P___ -1 16.4703 125.728 7 7 20
1904138N14125 1904 11 WP MM NOT_NAMED 1904-05-18 03:00:00 NR 16.7980 125.857 main 357 357 __________P___ -1 16.7980 125.857 7 7 21
1904138N14125 1904 11 WP MM NOT_NAMED 1904-05-18 04:00:00 NR 16.9000 125.900 main 361 361 __________O___ -1 16.9000 125.900 7 6 22
1904138N14125 1904 11 WP MM NOT_NAMED 1904-05-18 06:00:00 NR 17.0842 125.978 main 372 372 __________P___ -1 17.0842 125.978 7 6 23
1904138N14125 1904 11 WP MM NOT_NAMED 1904-05-18 09:00:00 NR 17.3352 126.096 main 384 384 __________P___ -1 17.3352 126.096 7 5 25
1904138N14125 1904 11 WP MM NOT_NAMED 1904-05-18 12:00:00 NR 17.5725 126.218 main 398 398 __________P___ -1 17.5725 126.218 7 5 27
1904138N14125 1904 11 WP MM NOT_NAMED 1904-05-18 15:00:00 NR 17.8148 126.352 main 423 423 __________P___ -1 17.8148 126.352 7 6 28
1904138N14125 1904 11 WP MM NOT_NAMED 1904-05-18 16:00:00 NR 17.9000 126.400 main 425 425 __________O___ -1 17.9000 126.400 7 5 27
1904138N14125 1904 11 WP MM NOT_NAMED 1904-05-18 18:00:00 NR 18.0542 126.475 main 441 441 __________P___ -1 18.0542 126.475 7 5 26
1904138N14125 1904 11 WP MM NOT_NAMED 1904-05-18 21:00:00 NR 18.2974 126.599 main 454 453 __________P___ -1 18.2974 126.599 7 6 27
1904138N14125 1904 11 WP MM NOT_NAMED 1904-05-19 00:00:00 NR 18.5857 126.764 main 475 475 __________P___ -1 18.5857 126.764 7 8 30
1904138N14125 1904 11 WP MM NOT_NAMED 1904-05-19 03:00:00 NR 18.9537 127.000 main 499 499 __________P___ -1 18.9537 127.000 7 9 32
1904138N14125 1904 11 WP MM NOT_NAMED 1904-05-19 04:00:00 NR 19.1000 127.100 main 511 511 __________O___ -1 19.1000 127.100 7 12 33
1904138N14125 1904 11 WP MM NOT_NAMED 1904-05-19 06:00:00 NR 19.4585 127.347 main 540 550 __________P___ -1 19.4585 127.347 7 14 34
1904138N14125 1904 11 WP MM NOT_NAMED 1904-05-19 09:00:00 NR 20.0785 127.794 main 607 607 __________P___ -1 20.0785 127.794 7 16 35
1904138N14125 1904 11 WP MM NOT_NAMED 1904-05-19 12:00:00 NR 20.7441 128.300 main 679 683 __________P___ -1 20.7441 128.300 7 16 36
1904138N14125 1904 11 WP MM NOT_NAMED 1904-05-19 15:00:00 NR 21.3959 128.826 main 757 767 __________P___ -1 21.3959 128.826 7 16 37
1904138N14125 1904 11 WP MM NOT_NAMED 1904-05-19 16:00:00 NR 21.6000 129.000 main 786 786 __________O___ -1 21.6000 129.000 7 14 40
1904138N14125 1904 11 WP MM NOT_NAMED 1904-05-19 18:00:00 NR 21.9293 129.306 main 809 805 __________P___ -1 21.9293 129.306 7 13 42
1904138N14125 1904 11 WP MM NOT_NAMED 1904-05-19 21:00:00 NR 22.3854 129.763 main 838 835 __________P___ -1 22.3854 129.763 7 13 43
1904138N14125 1904 11 WP MM NOT_NAMED 1904-05-20 00:00:00 NR 22.8349 130.231 main 865 859 __________P___ -1 22.8349 130.231 7 13 43
1904138N14125 1904 11 WP MM NOT_NAMED 1904-05-20 03:00:00 NR 23.3218 130.726 main 859 837 __________P___ -1 23.3218 130.726 7 14 43
1904138N14125 1904 11 WP MM NOT_NAMED 1904-05-20 04:00:00 NR 23.5000 130.900 main 837 794 __________O___ -1 23.5000 130.900 7 16 41
1904138N14125 1904 11 WP MM NOT_NAMED 1904-05-20 06:00:00 NR 23.9046 131.281 main 795 724 __________P___ -1 23.9046 131.281 7 17 40
1904138N14125 1904 11 WP MM NOT_NAMED 1904-05-20 09:00:00 NR 24.5619 131.886 main 724 660 __________P___ -1 24.5619 131.886 7 18 39
1904138N14125 1904 11 WP MM NOT_NAMED 1904-05-20 12:00:00 NR 25.2572 132.504 main 660 605 __________P___ -1 25.2572 132.504 7 18 38
1904138N14125 1904 11 WP MM NOT_NAMED 1904-05-20 15:00:00 NR 25.9653 133.107 main 605 592 __________P___ -1 25.9653 133.107 7 18 37
1904138N14125 1904 11 WP MM NOT_NAMED 1904-05-20 16:00:00 NR 26.2000 133.300 main 592 561 __________O___ -1 26.2000 133.300 7 17 36
1904138N14125 1904 11 WP MM NOT_NAMED 1904-05-20 18:00:00 NR 26.6634 133.668 main 561 526 __________P___ -1 26.6634 133.668 7 17 35
1904138N14125 1904 11 WP MM NOT_NAMED 1904-05-20 21:00:00 NR 27.3455 134.185 main 531 489 __________P___ -1 27.3455 134.185 7 16 33
1904138N14125 1904 11 WP MM NOT_NAMED 1904-05-21 00:00:00 NR 28.0161 134.672 main 495 466 __________P___ -1 28.0161 134.672 7 16 32
1904138N14125 1904 11 WP MM NOT_NAMED 1904-05-21 03:00:00 NR 28.6797 135.143 main 466 466 __________P___ -1 28.6797 135.143 7 16 32
1904138N14125 1904 11 WP MM NOT_NAMED 1904-05-21 04:00:00 NR 28.9000 135.300 main 466 __________O___ -1 28.9000 135.300 7 16 32

デジタル台風データ・検索

IBTrACS Databaseについて

本データベースは、米国NOAAが公開する1842年以降の世界の熱帯低気圧のベストトラックデータアーカイブInternational Best Track Archive for Climate Stewardship (IBTrACS)を、ウェブで閲覧しやすい形式に変換したものです。

最終更新日:2021-12-01